sensor_id;sensor_type;location;lat;lon;timestamp;temperature;humidity
2657;DHT22;1338;48.176;11.792;2023-04-01T00:01:33;7.80;99.90
2657;DHT22;1338;48.176;11.792;2023-04-01T00:04:03;7.80;99.90
2657;DHT22;1338;48.176;11.792;2023-04-01T00:06:33;7.80;99.90
2657;DHT22;1338;48.176;11.792;2023-04-01T00:09:02;7.60;99.90
2657;DHT22;1338;48.176;11.792;2023-04-01T00:11:32;7.60;99.90
2657;DHT22;1338;48.176;11.792;2023-04-01T00:14:01;7.50;99.90
2657;DHT22;1338;48.176;11.792;2023-04-01T00:16:30;7.60;99.90
2657;DHT22;1338;48.176;11.792;2023-04-01T00:19:00;7.50;99.90
2657;DHT22;1338;48.176;11.792;2023-04-01T00:21:30;7.50;99.90
2657;DHT22;1338;48.176;11.792;2023-04-01T00:23:58;7.50;99.90
2657;DHT22;1338;48.176;11.792;2023-04-01T00:26:30;7.40;99.90
2657;DHT22;1338;48.176;11.792;2023-04-01T00:28:59;7.40;99.90
2657;DHT22;1338;48.176;11.792;2023-04-01T00:31:28;7.50;99.90
2657;DHT22;1338;48.176;11.792;2023-04-01T00:33:57;7.40;99.90
2657;DHT22;1338;48.176;11.792;2023-04-01T00:36:27;7.40;99.90
2657;DHT22;1338;48.176;11.792;2023-04-01T00:38:57;7.40;99.90
2657;DHT22;1338;48.176;11.792;2023-04-01T00:41:26;7.40;99.90
2657;DHT22;1338;48.176;11.792;2023-04-01T00:44:16;7.20;99.90
2657;DHT22;1338;48.176;11.792;2023-04-01T00:46:47;7.30;99.90
2657;DHT22;1338;48.176;11.792;2023-04-01T00:49:19;7.30;99.90
2657;DHT22;1338;48.176;11.792;2023-04-01T00:51:53;7.30;99.90
2657;DHT22;1338;48.176;11.792;2023-04-01T00:54:24;7.30;99.90
2657;DHT22;1338;48.176;11.792;2023-04-01T00:56:56;7.40;99.90
2657;DHT22;1338;48.176;11.792;2023-04-01T00:59:30;7.30;99.90
2657;DHT22;1338;48.176;11.792;2023-04-01T01:02:01;7.30;99.90
2657;DHT22;1338;48.176;11.792;2023-04-01T01:04:31;7.20;99.90
2657;DHT22;1338;48.176;11.792;2023-04-01T01:07:12;7.30;99.90
2657;DHT22;1338;48.176;11.792;2023-04-01T01:09:48;7.20;99.90
2657;DHT22;1338;48.176;11.792;2023-04-01T01:12:24;7.30;99.90
2657;DHT22;1338;48.176;11.792;2023-04-01T01:15:01;7.10;99.90
2657;DHT22;1338;48.176;11.792;2023-04-01T01:17:38;7.30;99.90
2657;DHT22;1338;48.176;11.792;2023-04-01T01:23:58;7.40;99.90
2657;DHT22;1338;48.176;11.792;2023-04-01T01:26:44;7.40;99.90
2657;DHT22;1338;48.176;11.792;2023-04-01T01:29:39;7.50;99.90
2657;DHT22;1338;48.176;11.792;2023-04-01T01:32:19;7.60;99.90
2657;DHT22;1338;48.176;11.792;2023-04-01T01:35:05;7.60;99.90
2657;DHT22;1338;48.176;11.792;2023-04-01T01:37:37;7.50;99.90
2657;DHT22;1338;48.176;11.792;2023-04-01T01:40:10;7.40;99.90
2657;DHT22;1338;48.176;11.792;2023-04-01T01:42:44;7.40;99.90
2657;DHT22;1338;48.176;11.792;2023-04-01T01:45:16;7.40;99.90
2657;DHT22;1338;48.176;11.792;2023-04-01T01:47:48;7.50;99.90
2657;DHT22;1338;48.176;11.792;2023-04-01T01:50:21;7.60;99.90
2657;DHT22;1338;48.176;11.792;2023-04-01T01:52:51;7.60;
2657;DHT22;1338;48.176;11.792;2023-04-01T01:55:29;7.60;99.90
2657;DHT22;1338;48.176;11.792;2023-04-01T01:58:02;7.60;99.90
2657;DHT22;1338;48.176;11.792;2023-04-01T02:00:34;7.50;99.90
2657;DHT22;1338;48.176;11.792;2023-04-01T02:03:05;7.50;99.90
2657;DHT22;1338;48.176;11.792;2023-04-01T02:05:36;7.50;99.90
2657;DHT22;1338;48.176;11.792;2023-04-01T02:08:13;7.40;99.90
2657;DHT22;1338;48.176;11.792;2023-04-01T02:10:47;7.60;99.90
2657;DHT22;1338;48.176;11.792;2023-04-01T02:13:27;7.60;99.90
2657;DHT22;1338;48.176;11.792;2023-04-01T02:16:02;7.40;99.90
2657;DHT22;1338;48.176;11.792;2023-04-01T02:18:36;7.40;99.90
2657;DHT22;1338;48.176;11.792;2023-04-01T02:21:09;7.40;99.90
2657;DHT22;1338;48.176;11.792;2023-04-01T02:23:39;7.40;99.90
2657;DHT22;1338;48.176;11.792;2023-04-01T02:26:10;7.50;99.90
2657;DHT22;1338;48.176;11.792;2023-04-01T02:28:41;7.60;99.90
2657;DHT22;1338;48.176;11.792;2023-04-01T02:31:13;7.50;99.90
2657;DHT22;1338;48.176;11.792;2023-04-01T02:33:43;7.50;99.90
2657;DHT22;1338;48.176;11.792;2023-04-01T02:36:16;7.60;99.90
2657;DHT22;1338;48.176;11.792;2023-04-01T02:38:47;7.50;99.90
2657;DHT22;1338;48.176;11.792;2023-04-01T02:41:19;7.60;99.90
2657;DHT22;1338;48.176;11.792;2023-04-01T02:43:48;7.60;99.90
2657;DHT22;1338;48.176;11.792;2023-04-01T02:46:17;7.50;99.90
2657;DHT22;1338;48.176;11.792;2023-04-01T02:48:46;7.40;99.90
2657;DHT22;1338;48.176;11.792;2023-04-01T02:51:16;7.50;99.90
2657;DHT22;1338;48.176;11.792;2023-04-01T02:53:45;7.40;99.90
2657;DHT22;1338;48.176;11.792;2023-04-01T02:56:13;7.50;99.90
2657;DHT22;1338;48.176;11.792;2023-04-01T02:58:42;7.50;99.90
2657;DHT22;1338;48.176;11.792;2023-04-01T03:01:11;7.50;99.90
2657;DHT22;1338;48.176;11.792;2023-04-01T03:03:40;7.60;99.90
2657;DHT22;1338;48.176;11.792;2023-04-01T03:06:12;7.60;99.90
2657;DHT22;1338;48.176;11.792;2023-04-01T03:08:43;7.50;99.90
2657;DHT22;1338;48.176;11.792;2023-04-01T03:11:13;7.60;99.90
2657;DHT22;1338;48.176;11.792;2023-04-01T03:13:41;7.60;99.90
2657;DHT22;1338;48.176;11.792;2023-04-01T03:16:11;7.50;99.90
2657;DHT22;1338;48.176;11.792;2023-04-01T03:18:40;7.50;99.90
2657;DHT22;1338;48.176;11.792;2023-04-01T03:21:13;7.40;99.90
2657;DHT22;1338;48.176;11.792;2023-04-01T03:23:44;7.50;99.90
2657;DHT22;1338;48.176;11.792;2023-04-01T03:26:13;7.60;99.90
2657;DHT22;1338;48.176;11.792;2023-04-01T03:28:42;7.40;99.90
2657;DHT22;1338;48.176;11.792;2023-04-01T03:31:11;7.50;99.90
2657;DHT22;1338;48.176;11.792;2023-04-01T03:33:47;7.40;99.90
2657;DHT22;1338;48.176;11.792;2023-04-01T03:36:16;7.50;99.90
2657;DHT22;1338;48.176;11.792;2023-04-01T03:38:47;7.30;99.90
2657;DHT22;1338;48.176;11.792;2023-04-01T03:41:22;7.40;99.90
2657;DHT22;1338;48.176;11.792;2023-04-01T03:43:53;7.40;99.90
2657;DHT22;1338;48.176;11.792;2023-04-01T03:46:23;7.30;99.90
2657;DHT22;1338;48.176;11.792;2023-04-01T03:48:53;7.20;99.90
2657;DHT22;1338;48.176;11.792;2023-04-01T03:51:22;7.20;99.90
2657;DHT22;1338;48.176;11.792;2023-04-01T03:53:52;7.30;99.90
2657;DHT22;1338;48.176;11.792;2023-04-01T03:56:21;7.20;99.90
2657;DHT22;1338;48.176;11.792;2023-04-01T03:58:50;7.10;99.90
2657;DHT22;1338;48.176;11.792;2023-04-01T04:01:21;7.00;99.90
2657;DHT22;1338;48.176;11.792;2023-04-01T04:03:54;7.20;99.90
2657;DHT22;1338;48.176;11.792;2023-04-01T04:06:24;7.10;99.90
2657;DHT22;1338;48.176;11.792;2023-04-01T04:08:56;7.20;99.90
2657;DHT22;1338;48.176;11.792;2023-04-01T04:11:26;7.10;99.90
2657;DHT22;1338;48.176;11.792;2023-04-01T04:13:55;7.10;99.90
2657;DHT22;1338;48.176;11.792;2023-04-01T04:16:24;7.10;99.90
2657;DHT22;1338;48.176;11.792;2023-04-01T04:18:57;7.00;99.90
2657;DHT22;1338;48.176;11.792;2023-04-01T04:21:27;6.80;99.90
2657;DHT22;1338;48.176;11.792;2023-04-01T04:23:58;7.00;99.90
2657;DHT22;1338;48.176;11.792;2023-04-01T04:26:34;6.90;99.90
2657;DHT22;1338;48.176;11.792;2023-04-01T04:29:03;6.90;99.90
2657;DHT22;1338;48.176;11.792;2023-04-01T04:31:32;6.90;99.90
2657;DHT22;1338;48.176;11.792;2023-04-01T04:34:01;6.90;99.90
2657;DHT22;1338;48.176;11.792;2023-04-01T04:36:34;7.00;99.90
2657;DHT22;1338;48.176;11.792;2023-04-01T04:39:05;6.90;99.90
2657;DHT22;1338;48.176;11.792;2023-04-01T04:41:37;7.00;99.90
2657;DHT22;1338;48.176;11.792;2023-04-01T04:44:06;7.00;99.90
2657;DHT22;1338;48.176;11.792;2023-04-01T04:46:34;7.10;99.90
2657;DHT22;1338;48.176;11.792;2023-04-01T04:49:14;7.00;99.90
2657;DHT22;1338;48.176;11.792;2023-04-01T04:51:43;7.00;99.90
2657;DHT22;1338;48.176;11.792;2023-04-01T04:54:15;7.00;99.90
2657;DHT22;1338;48.176;11.792;2023-04-01T04:56:51;7.10;99.90
2657;DHT22;1338;48.176;11.792;2023-04-01T04:59:24;7.00;99.90
2657;DHT22;1338;48.176;11.792;2023-04-01T05:02:16;7.20;99.90
2657;DHT22;1338;48.176;11.792;2023-04-01T05:04:46;7.20;99.90
2657;DHT22;1338;48.176;11.792;2023-04-01T05:07:15;7.20;99.90
2657;DHT22;1338;48.176;11.792;2023-04-01T05:09:46;7.10;99.90
2657;DHT22;1338;48.176;11.792;2023-04-01T05:12:14;7.20;99.90
2657;DHT22;1338;48.176;11.792;2023-04-01T05:14:57;7.30;99.90
2657;DHT22;1338;48.176;11.792;2023-04-01T05:17:25;7.30;99.90
2657;DHT22;1338;48.176;11.792;2023-04-01T05:19:54;7.30;99.90
2657;DHT22;1338;48.176;11.792;2023-04-01T05:22:23;7.40;99.90
2657;DHT22;1338;48.176;11.792;2023-04-01T05:24:54;7.30;99.90
2657;DHT22;1338;48.176;11.792;2023-04-01T05:27:23;7.40;99.90
2657;DHT22;1338;48.176;11.792;2023-04-01T05:29:52;7.30;99.90
2657;DHT22;1338;48.176;11.792;2023-04-01T05:32:45;7.40;99.90
2657;DHT22;1338;48.176;11.792;2023-04-01T05:35:14;7.50;99.90
2657;DHT22;1338;48.176;11.792;2023-04-01T05:37:43;7.50;99.90
2657;DHT22;1338;48.176;11.792;2023-04-01T05:40:13;7.50;99.90
2657;DHT22;1338;48.176;11.792;2023-04-01T05:42:42;7.60;99.90
2657;DHT22;1338;48.176;11.792;2023-04-01T05:45:11;7.60;99.90
2657;DHT22;1338;48.176;11.792;2023-04-01T05:48:17;7.60;99.90
2657;DHT22;1338;48.176;11.792;2023-04-01T05:50:46;7.70;99.90
2657;DHT22;1338;48.176;11.792;2023-04-01T05:53:15;7.60;99.90
2657;DHT22;1338;48.176;11.792;2023-04-01T05:55:45;7.80;99.90
2657;DHT22;1338;48.176;11.792;2023-04-01T05:58:14;7.80;99.90
2657;DHT22;1338;48.176;11.792;2023-04-01T06:00:46;7.70;99.90
2657;DHT22;1338;48.176;11.792;2023-04-01T06:03:34;7.70;99.90
2657;DHT22;1338;48.176;11.792;2023-04-01T06:06:04;7.80;99.90
2657;DHT22;1338;48.176;11.792;2023-04-01T06:08:36;7.80;99.90
2657;DHT22;1338;48.176;11.792;2023-04-01T06:11:16;7.90;99.90
2657;DHT22;1338;48.176;11.792;2023-04-01T06:16:53;7.80;99.90
2657;DHT22;1338;48.176;11.792;2023-04-01T06:19:33;7.90;99.90
2657;DHT22;1338;48.176;11.792;2023-04-01T06:22:26;7.90;99.90
2657;DHT22;1338;48.176;11.792;2023-04-01T06:31:24;8.00;99.90
2657;DHT22;1338;48.176;11.792;2023-04-01T06:34:08;8.10;99.90
2657;DHT22;1338;48.176;11.792;2023-04-01T06:37:04;8.10;99.90
2657;DHT22;1338;48.176;11.792;2023-04-01T06:42:53;8.20;99.90
2657;DHT22;1338;48.176;11.792;2023-04-01T06:45:47;8.30;97.90
2657;DHT22;1338;48.176;11.792;2023-04-01T06:48:49;8.30;95.80
2657;DHT22;1338;48.176;11.792;2023-04-01T06:52:00;8.30;99.70
2657;DHT22;1338;48.176;11.792;2023-04-01T06:54:52;8.30;95.90
2657;DHT22;1338;48.176;11.792;2023-04-01T06:57:55;8.40;93.40
2657;DHT22;1338;48.176;11.792;2023-04-01T07:00:29;8.50;92.80
2657;DHT22;1338;48.176;11.792;2023-04-01T07:03:06;8.60;95.90
2657;DHT22;1338;48.176;11.792;2023-04-01T07:05:41;8.50;93.90
2657;DHT22;1338;48.176;11.792;2023-04-01T07:08:14;8.40;92.10
2657;DHT22;1338;48.176;11.792;2023-04-01T07:10:47;8.40;78.10
2657;DHT22;1338;48.176;11.792;2023-04-01T07:13:42;8.40;76.10
2657;DHT22;1338;48.176;11.792;2023-04-01T07:16:20;8.50;92.20
2657;DHT22;1338;48.176;11.792;2023-04-01T07:18:53;8.50;71.80
2657;DHT22;1338;48.176;11.792;2023-04-01T07:21:33;8.60;67.90
2657;DHT22;1338;48.176;11.792;2023-04-01T07:24:16;8.70;73.10
2657;DHT22;1338;48.176;11.792;2023-04-01T07:27:08;8.70;59.10
2657;DHT22;1338;48.176;11.792;2023-04-01T07:29:38;8.70;62.80
2657;DHT22;1338;48.176;11.792;2023-04-01T07:32:41;8.70;68.20
2657;DHT22;1338;48.176;11.792;2023-04-01T07:35:19;8.80;49.00
2657;DHT22;1338;48.176;11.792;2023-04-01T07:38:05;8.90;46.20
2657;DHT22;1338;48.176;11.792;2023-04-01T07:40:40;8.80;36.90
2657;DHT22;1338;48.176;11.792;2023-04-01T07:43:32;8.80;40.30
2657;DHT22;1338;48.176;11.792;2023-04-01T07:46:36;9.00;48.40
2657;DHT22;1338;48.176;11.792;2023-04-01T07:49:16;9.00;29.60
2657;DHT22;1338;48.176;11.792;2023-04-01T07:51:52;9.00;35.60
2657;DHT22;1338;48.176;11.792;2023-04-01T07:54:32;9.10;45.20
2657;DHT22;1338;48.176;11.792;2023-04-01T07:57:10;9.20;48.20
2657;DHT22;1338;48.176;11.792;2023-04-01T07:59:54;9.20;24.80
2657;DHT22;1338;48.176;11.792;2023-04-01T08:02:51;9.30;41.80
2657;DHT22;1338;48.176;11.792;2023-04-01T08:05:27;9.20;24.00
2657;DHT22;1338;48.176;11.792;2023-04-01T08:08:06;9.30;28.00
2657;DHT22;1338;48.176;11.792;2023-04-01T08:11:05;9.30;30.00
2657;DHT22;1338;48.176;11.792;2023-04-01T08:14:20;9.20;22.30
2657;DHT22;1338;48.176;11.792;2023-04-01T08:17:16;9.40;31.40
2657;DHT22;1338;48.176;11.792;2023-04-01T08:19:58;9.20;13.40
2657;DHT22;1338;48.176;11.792;2023-04-01T08:22:37;9.50;39.10
2657;DHT22;1338;48.176;11.792;2023-04-01T08:25:22;9.40;19.50
2657;DHT22;1338;48.176;11.792;2023-04-01T08:27:59;9.40;19.00
2657;DHT22;1338;48.176;11.792;2023-04-01T08:30:40;9.40;8.10
2657;DHT22;1338;48.176;11.792;2023-04-01T08:33:13;9.50;11.00
2657;DHT22;1338;48.176;11.792;2023-04-01T08:35:51;9.60;17.30
2657;DHT22;1338;48.176;11.792;2023-04-01T08:38:24;9.80;28.30
2657;DHT22;1338;48.176;11.792;2023-04-01T08:41:00;9.80;5.10
2657;DHT22;1338;48.176;11.792;2023-04-01T08:44:11;9.70;1.00
2657;DHT22;1338;48.176;11.792;2023-04-01T08:47:03;10.00;7.70
2657;DHT22;1338;48.176;11.792;2023-04-01T08:53:07;9.90;1.00
2657;DHT22;1338;48.176;11.792;2023-04-01T08:56:03;9.90;1.00
2657;DHT22;1338;48.176;11.792;2023-04-01T08:59:02;10.60;1.00
2657;DHT22;1338;48.176;11.792;2023-04-01T09:01:51;10.40;1.00
2657;DHT22;1338;48.176;11.792;2023-04-01T09:04:52;10.30;1.00
2657;DHT22;1338;48.176;11.792;2023-04-01T09:07:34;10.10;1.00
2657;DHT22;1338;48.176;11.792;2023-04-01T09:10:31;10.10;1.00
2657;DHT22;1338;48.176;11.792;2023-04-01T09:13:36;10.20;1.00
2657;DHT22;1338;48.176;11.792;2023-04-01T09:16:38;10.40;1.00
2657;DHT22;1338;48.176;11.792;2023-04-01T09:19:31;10.10;1.00
2657;DHT22;1338;48.176;11.792;2023-04-01T09:22:25;10.30;1.00
2657;DHT22;1338;48.176;11.792;2023-04-01T09:25:15;10.30;1.00
2657;DHT22;1338;48.176;11.792;2023-04-01T09:27:56;10.50;1.00
2657;DHT22;1338;48.176;11.792;2023-04-01T09:30:53;11.10;1.00
2657;DHT22;1338;48.176;11.792;2023-04-01T09:36:46;11.20;1.00
2657;DHT22;1338;48.176;11.792;2023-04-01T09:39:36;11.10;1.00
2657;DHT22;1338;48.176;11.792;2023-04-01T09:42:22;10.70;1.00
2657;DHT22;1338;48.176;11.792;2023-04-01T09:45:10;10.90;1.00
2657;DHT22;1338;48.176;11.792;2023-04-01T09:47:55;11.00;1.00
2657;DHT22;1338;48.176;11.792;2023-04-01T09:50:34;11.00;1.00
2657;DHT22;1338;48.176;11.792;2023-04-01T09:53:17;11.10;1.00
2657;DHT22;1338;48.176;11.792;2023-04-01T09:59:08;11.20;1.00
2657;DHT22;1338;48.176;11.792;2023-04-01T10:05:54;11.00;1.00
2657;DHT22;1338;48.176;11.792;2023-04-01T10:08:49;11.00;1.00
2657;DHT22;1338;48.176;11.792;2023-04-01T10:11:58;11.20;1.00
2657;DHT22;1338;48.176;11.792;2023-04-01T10:14:46;11.40;1.00
2657;DHT22;1338;48.176;11.792;2023-04-01T10:17:36;11.50;1.00
2657;DHT22;1338;48.176;11.792;2023-04-01T10:20:36;11.20;1.00
2657;DHT22;1338;48.176;11.792;2023-04-01T10:23:22;11.00;1.00
2657;DHT22;1338;48.176;11.792;2023-04-01T10:26:33;11.20;1.00
2657;DHT22;1338;48.176;11.792;2023-04-01T10:36:08;11.30;1.00
2657;DHT22;1338;48.176;11.792;2023-04-01T10:39:17;11.20;1.00
2657;DHT22;1338;48.176;11.792;2023-04-01T10:45:45;11.30;1.00
2657;DHT22;1338;48.176;11.792;2023-04-01T10:48:30;11.30;1.00
2657;DHT22;1338;48.176;11.792;2023-04-01T10:51:16;11.40;1.00
2657;DHT22;1338;48.176;11.792;2023-04-01T10:56:55;11.10;1.00
2657;DHT22;1338;48.176;11.792;2023-04-01T11:00:10;11.10;1.00
2657;DHT22;1338;48.176;11.792;2023-04-01T11:13:30;10.70;1.00
2657;DHT22;1338;48.176;11.792;2023-04-01T11:20:02;10.60;1.00
2657;DHT22;1338;48.176;11.792;2023-04-01T11:22:55;10.40;1.00
2657;DHT22;1338;48.176;11.792;2023-04-01T11:25:48;10.20;1.00
2657;DHT22;1338;48.176;11.792;2023-04-01T11:31:58;10.10;1.00
2657;DHT22;1338;48.176;11.792;2023-04-01T11:34:50;10.20;1.00
2657;DHT22;1338;48.176;11.792;2023-04-01T11:37:37;10.50;1.00
2657;DHT22;1338;48.176;11.792;2023-04-01T11:40:31;10.40;1.00
2657;DHT22;1338;48.176;11.792;2023-04-01T11:43:27;10.50;1.00
2657;DHT22;1338;48.176;11.792;2023-04-01T11:46:39;10.30;1.00
2657;DHT22;1338;48.176;11.792;2023-04-01T11:49:27;10.50;1.00
2657;DHT22;1338;48.176;11.792;2023-04-01T11:52:27;10.20;1.00
2657;DHT22;1338;48.176;11.792;2023-04-01T11:55:19;10.30;1.00
2657;DHT22;1338;48.176;11.792;2023-04-01T12:04:16;9.50;33.40
2657;DHT22;1338;48.176;11.792;2023-04-01T12:06:54;9.20;56.70
2657;DHT22;1338;48.176;11.792;2023-04-01T12:09:37;9.10;85.10
2657;DHT22;1338;48.176;11.792;2023-04-01T12:12:17;8.90;99.90
2657;DHT22;1338;48.176;11.792;2023-04-01T12:14:58;8.80;99.90
2657;DHT22;1338;48.176;11.792;2023-04-01T12:17:34;8.80;99.90
2657;DHT22;1338;48.176;11.792;2023-04-01T12:20:23;8.70;99.90
2657;DHT22;1338;48.176;11.792;2023-04-01T12:23:03;8.50;99.90
2657;DHT22;1338;48.176;11.792;2023-04-01T12:26:11;8.30;99.90
2657;DHT22;1338;48.176;11.792;2023-04-01T12:28:54;8.20;99.90
2657;DHT22;1338;48.176;11.792;2023-04-01T12:31:36;8.30;99.90
2657;DHT22;1338;48.176;11.792;2023-04-01T12:34:38;8.30;99.90
2657;DHT22;1338;48.176;11.792;2023-04-01T12:37:13;8.30;99.90
2657;DHT22;1338;48.176;11.792;2023-04-01T12:40:07;8.30;99.90
2657;DHT22;1338;48.176;11.792;2023-04-01T12:43:05;8.30;99.90
2657;DHT22;1338;48.176;11.792;2023-04-01T12:45:45;8.20;99.90
2657;DHT22;1338;48.176;11.792;2023-04-01T12:48:59;8.30;99.90
2657;DHT22;1338;48.176;11.792;2023-04-01T12:51:54;8.30;99.90
2657;DHT22;1338;48.176;11.792;2023-04-01T12:58:18;8.30;99.90
2657;DHT22;1338;48.176;11.792;2023-04-01T13:07:27;8.30;99.90
2657;DHT22;1338;48.176;11.792;2023-04-01T13:10:06;8.20;99.90
2657;DHT22;1338;48.176;11.792;2023-04-01T13:12:58;8.20;99.90
2657;DHT22;1338;48.176;11.792;2023-04-01T13:15:45;8.20;99.90
2657;DHT22;1338;48.176;11.792;2023-04-01T13:18:24;8.10;99.90
2657;DHT22;1338;48.176;11.792;2023-04-01T13:21:04;8.10;99.90
2657;DHT22;1338;48.176;11.792;2023-04-01T13:23:45;8.00;99.90
2657;DHT22;1338;48.176;11.792;2023-04-01T13:26:24;8.10;99.90
2657;DHT22;1338;48.176;11.792;2023-04-01T13:29:04;8.10;99.90
2657;DHT22;1338;48.176;11.792;2023-04-01T13:31:53;8.00;99.90
2657;DHT22;1338;48.176;11.792;2023-04-01T13:34:35;8.00;99.90
2657;DHT22;1338;48.176;11.792;2023-04-01T13:37:24;8.00;99.90
2657;DHT22;1338;48.176;11.792;2023-04-01T13:40:10;8.10;99.90
2657;DHT22;1338;48.176;11.792;2023-04-01T13:42:51;8.00;99.90
2657;DHT22;1338;48.176;11.792;2023-04-01T13:45:24;8.10;99.90
2657;DHT22;1338;48.176;11.792;2023-04-01T13:48:25;8.10;99.90
2657;DHT22;1338;48.176;11.792;2023-04-01T13:51:28;8.20;99.90
2657;DHT22;1338;48.176;11.792;2023-04-01T13:54:26;8.20;99.90
2657;DHT22;1338;48.176;11.792;2023-04-01T14:00:56;8.20;99.90
2657;DHT22;1338;48.176;11.792;2023-04-01T14:04:03;8.20;99.90
2657;DHT22;1338;48.176;11.792;2023-04-01T14:06:44;8.20;99.90
2657;DHT22;1338;48.176;11.792;2023-04-01T14:09:35;8.20;99.90
2657;DHT22;1338;48.176;11.792;2023-04-01T14:12:10;8.30;99.90
2657;DHT22;1338;48.176;11.792;2023-04-01T14:14:54;8.30;99.90
2657;DHT22;1338;48.176;11.792;2023-04-01T14:17:43;8.40;99.90
2657;DHT22;1338;48.176;11.792;2023-04-01T14:20:27;8.40;99.90
2657;DHT22;1338;48.176;11.792;2023-04-01T14:23:20;8.60;99.90
2657;DHT22;1338;48.176;11.792;2023-04-01T14:26:19;8.70;99.90
2657;DHT22;1338;48.176;11.792;2023-04-01T14:29:03;8.70;99.90
2657;DHT22;1338;48.176;11.792;2023-04-01T14:31:48;8.60;99.90
2657;DHT22;1338;48.176;11.792;2023-04-01T14:34:31;8.60;99.90
2657;DHT22;1338;48.176;11.792;2023-04-01T14:37:19;8.50;99.90
2657;DHT22;1338;48.176;11.792;2023-04-01T14:40:26;8.60;99.90
2657;DHT22;1338;48.176;11.792;2023-04-01T14:43:21;8.60;99.90
2657;DHT22;1338;48.176;11.792;2023-04-01T14:46:10;8.70;99.90
2657;DHT22;1338;48.176;11.792;2023-04-01T14:49:00;8.70;99.90
2657;DHT22;1338;48.176;11.792;2023-04-01T14:51:35;8.80;99.90
2657;DHT22;1338;48.176;11.792;2023-04-01T14:54:14;8.90;99.90
2657;DHT22;1338;48.176;11.792;2023-04-01T14:56:51;9.00;99.90
2657;DHT22;1338;48.176;11.792;2023-04-01T14:59:32;9.00;99.90
2657;DHT22;1338;48.176;11.792;2023-04-01T15:02:14;9.00;99.90
2657;DHT22;1338;48.176;11.792;2023-04-01T15:04:53;8.90;99.90
2657;DHT22;1338;48.176;11.792;2023-04-01T15:13:53;9.10;99.90
2657;DHT22;1338;48.176;11.792;2023-04-01T15:16:31;9.20;99.90
2657;DHT22;1338;48.176;11.792;2023-04-01T15:19:15;9.20;99.90
2657;DHT22;1338;48.176;11.792;2023-04-01T15:22:05;9.20;99.90
2657;DHT22;1338;48.176;11.792;2023-04-01T15:24:47;9.10;99.90
2657;DHT22;1338;48.176;11.792;2023-04-01T15:27:22;9.00;99.90
2657;DHT22;1338;48.176;11.792;2023-04-01T15:30:19;9.00;99.90
2657;DHT22;1338;48.176;11.792;2023-04-01T15:33:02;8.90;99.90
2657;DHT22;1338;48.176;11.792;2023-04-01T15:35:39;8.80;99.90
2657;DHT22;1338;48.176;11.792;2023-04-01T15:38:30;8.80;99.90
2657;DHT22;1338;48.176;11.792;2023-04-01T15:41:11;8.70;99.90
2657;DHT22;1338;48.176;11.792;2023-04-01T15:43:43;8.70;99.90
2657;DHT22;1338;48.176;11.792;2023-04-01T15:46:43;8.80;99.90
2657;DHT22;1338;48.176;11.792;2023-04-01T15:49:25;8.90;99.90
2657;DHT22;1338;48.176;11.792;2023-04-01T15:52:03;8.90;99.90
2657;DHT22;1338;48.176;11.792;2023-04-01T15:57:54;8.90;99.90
2657;DHT22;1338;48.176;11.792;2023-04-01T16:00:27;9.00;99.90
2657;DHT22;1338;48.176;11.792;2023-04-01T16:03:19;9.00;99.90
2657;DHT22;1338;48.176;11.792;2023-04-01T16:06:08;9.00;99.90
2657;DHT22;1338;48.176;11.792;2023-04-01T16:09:01;9.00;99.90
2657;DHT22;1338;48.176;11.792;2023-04-01T16:11:38;9.10;99.90
2657;DHT22;1338;48.176;11.792;2023-04-01T16:14:18;9.00;99.90
2657;DHT22;1338;48.176;11.792;2023-04-01T16:17:00;9.00;99.90
2657;DHT22;1338;48.176;11.792;2023-04-01T16:19:39;9.10;99.90
2657;DHT22;1338;48.176;11.792;2023-04-01T16:22:13;9.10;96.40
2657;DHT22;1338;48.176;11.792;2023-04-01T16:24:48;9.10;96.20
2657;DHT22;1338;48.176;11.792;2023-04-01T16:27:25;9.00;99.90
2657;DHT22;1338;48.176;11.792;2023-04-01T16:29:59;9.10;91.10
2657;DHT22;1338;48.176;11.792;2023-04-01T16:32:37;9.10;93.60
2657;DHT22;1338;48.176;11.792;2023-04-01T16:35:30;9.20;75.60
2657;DHT22;1338;48.176;11.792;2023-04-01T16:38:11;9.30;62.70
2657;DHT22;1338;48.176;11.792;2023-04-01T16:40:46;9.30;72.00
2657;DHT22;1338;48.176;11.792;2023-04-01T16:43:21;9.30;87.10
2657;DHT22;1338;48.176;11.792;2023-04-01T16:46:08;9.30;67.80
2657;DHT22;1338;48.176;11.792;2023-04-01T16:48:54;9.20;71.80
2657;DHT22;1338;48.176;11.792;2023-04-01T16:51:37;9.30;56.80
2657;DHT22;1338;48.176;11.792;2023-04-01T16:54:15;9.20;57.60
2657;DHT22;1338;48.176;11.792;2023-04-01T16:56:50;9.10;57.20
2657;DHT22;1338;48.176;11.792;2023-04-01T16:59:25;9.20;37.60
2657;DHT22;1338;48.176;11.792;2023-04-01T17:02:01;9.10;40.30
2657;DHT22;1338;48.176;11.792;2023-04-01T17:04:40;9.10;51.80
2657;DHT22;1338;48.176;11.792;2023-04-01T17:07:21;9.20;20.70
2657;DHT22;1338;48.176;11.792;2023-04-01T17:12:50;8.90;42.90
2657;DHT22;1338;48.176;11.792;2023-04-01T17:15:30;9.00;19.90
2657;DHT22;1338;48.176;11.792;2023-04-01T17:18:07;8.90;27.60
2657;DHT22;1338;48.176;11.792;2023-04-01T17:20:42;8.90;19.90
2657;DHT22;1338;48.176;11.792;2023-04-01T17:23:24;8.90;18.20
2657;DHT22;1338;48.176;11.792;2023-04-01T17:26:17;8.70;32.50
2657;DHT22;1338;48.176;11.792;2023-04-01T17:28:51;8.80;22.00
2657;DHT22;1338;48.176;11.792;2023-04-01T17:31:33;8.90;15.30
2657;DHT22;1338;48.176;11.792;2023-04-01T17:34:31;8.80;20.70
2657;DHT22;1338;48.176;11.792;2023-04-01T17:37:25;8.80;24.10
2657;DHT22;1338;48.176;11.792;2023-04-01T17:40:25;8.70;26.20
2657;DHT22;1338;48.176;11.792;2023-04-01T17:43:04;8.70;27.50
2657;DHT22;1338;48.176;11.792;2023-04-01T17:45:46;8.80;27.10
2657;DHT22;1338;48.176;11.792;2023-04-01T17:48:25;8.80;20.90
2657;DHT22;1338;48.176;11.792;2023-04-01T17:51:08;8.70;19.30
2657;DHT22;1338;48.176;11.792;2023-04-01T17:53:47;8.70;22.30
2657;DHT22;1338;48.176;11.792;2023-04-01T17:56:29;8.80;19.70
2657;DHT22;1338;48.176;11.792;2023-04-01T17:59:09;8.80;20.80
2657;DHT22;1338;48.176;11.792;2023-04-01T18:01:53;8.90;10.90
2657;DHT22;1338;48.176;11.792;2023-04-01T18:04:47;8.70;19.20
2657;DHT22;1338;48.176;11.792;2023-04-01T18:07:34;8.60;19.80
2657;DHT22;1338;48.176;11.792;2023-04-01T18:10:19;8.70;18.10
2657;DHT22;1338;48.176;11.792;2023-04-01T18:15:59;8.70;10.00
2657;DHT22;1338;48.176;11.792;2023-04-01T18:18:46;8.70;8.60
2657;DHT22;1338;48.176;11.792;2023-04-01T18:21:23;8.70;5.00
2657;DHT22;1338;48.176;11.792;2023-04-01T18:23:57;8.80;5.40
2657;DHT22;1338;48.176;11.792;2023-04-01T18:26:32;8.80;3.40
2657;DHT22;1338;48.176;11.792;2023-04-01T18:29:12;8.70;11.30
2657;DHT22;1338;48.176;11.792;2023-04-01T18:31:45;8.80;1.00
2657;DHT22;1338;48.176;11.792;2023-04-01T18:34:19;8.80;3.00
2657;DHT22;1338;48.176;11.792;2023-04-01T18:37:00;8.80;4.30
2657;DHT22;1338;48.176;11.792;2023-04-01T18:39:35;8.70;3.30
2657;DHT22;1338;48.176;11.792;2023-04-01T18:42:08;8.80;2.20
2657;DHT22;1338;48.176;11.792;2023-04-01T18:44:50;8.70;13.30
2657;DHT22;1338;48.176;11.792;2023-04-01T18:47:28;8.60;12.30
2657;DHT22;1338;48.176;11.792;2023-04-01T18:50:13;8.70;12.20
2657;DHT22;1338;48.176;11.792;2023-04-01T18:52:51;8.60;20.80
2657;DHT22;1338;48.176;11.792;2023-04-01T18:55:31;8.40;23.00
2657;DHT22;1338;48.176;11.792;2023-04-01T18:58:26;8.50;20.80
2657;DHT22;1338;48.176;11.792;2023-04-01T19:01:25;8.50;20.80
2657;DHT22;1338;48.176;11.792;2023-04-01T19:04:09;8.60;17.20
2657;DHT22;1338;48.176;11.792;2023-04-01T19:06:45;8.40;26.10